Kensington, Minnesota
Current Conditions -  °F | °C
As of 8:53 AM on Saturday 25 Oct 2014 (Local Time) from KAXN Reporting Station
Clear Clear  
Wind Chill:   Ceiling: Unl
Heat Index:   Visibility: 10mi
Dew Point:   Wind: 8mph
Humidity: 65%   Direction: 300°WNW
Pressure: 30.08"   Gusts: NA
Location:  45.78°N, 95.7°W
Report Text: KAXN 251353Z AUTO 30007KT 10SM CLR 07/01 A3008 RMK AO2 SLP193 T00720011
Loading
Personal Weather Stations






























Interactive Weather Map
Tropical Storm Tracking
New forecast layout! Learn more

10-Day Weather Forecast

Advertisements
Track Severe Weather on mobile